Time;durP1;ratioP1;P1;durP2;ratioP2;P2;SDS_P1;SDS_P2;PMS_P1;PMS_P2;Temp;Humidity;BMP_temperature;BMP_pressure;BME280_temperature;BME280_humidity;BME280_pressure;Samples;Min_cycle;Max_cycle;Signal;HPM_P1;HPM_P2
2022/06/20 20:04:56;;;;;;;5.00;1.80;;;16.40;99.30;;;;;;5079358;28;20417;-80
2022/06/20 20:07:49;;;;;;;2.28;1.52;;;16.40;99.30;;;;;;5068443;28;20040;-81
2022/06/20 20:10:44;;;;;;;3.90;1.55;;;16.40;99.30;;;;;;5060255;28;20044;-81
2022/06/20 20:13:14;;;;;;;6.57;2.20;;;16.40;99.30;;;;;;5063937;28;20139;-82
2022/06/20 20:15:53;;;;;;;4.40;1.60;;;16.40;99.30;;;;;;5079017;28;20541;-80
2022/06/20 20:18:24;;;;;;;3.40;1.75;;;16.40;99.30;;;;;;5065484;28;20029;-83
2022/06/20 20:21:08;;;;;;;8.90;1.92;;;16.40;99.30;;;;;;5064149;28;20110;-81
2022/06/20 20:23:56;;;;;;;4.22;1.75;;;16.40;99.30;;;;;;5057106;28;20542;-81
2022/06/20 20:26:21;;;;;;;4.07;1.30;;;16.30;99.30;;;;;;5054616;28;20028;-81
2022/06/20 20:29:02;;;;;;;4.80;1.40;;;16.30;99.30;;;;;;5058165;28;20608;-79
2022/06/20 20:31:46;;;;;;;3.78;1.33;;;16.20;99.20;;;;;;5051314;28;20144;-79
2022/06/20 20:34:38;;;;;;;6.10;1.88;;;16.30;99.40;;;;;;5055475;28;20044;-81
2022/06/20 20:37:28;;;;;;;3.75;1.50;;;16.30;99.20;;;;;;5059119;28;20025;-80
2022/06/20 20:40:02;;;;;;;3.08;1.80;;;16.30;99.40;;;;;;5059219;28;20036;-81
2022/06/20 20:42:49;;;;;;;3.08;1.58;;;16.20;99.40;;;;;;5051697;28;20040;-81
2022/06/20 20:45:33;;;;;;;7.05;2.15;;;16.30;99.40;;;;;;5071637;28;20041;-82
2022/06/20 20:48:34;;;;;;;2.70;1.73;;;16.20;99.30;;;;;;5062526;28;20082;-82
2022/06/20 20:51:06;;;;;;;3.60;1.65;;;16.20;99.30;;;;;;5072137;28;20436;-82
2022/06/20 20:53:36;;;;;;;3.67;1.92;;;16.20;99.40;;;;;;5066953;28;20028;-82
2022/06/20 20:56:08;;;;;;;3.78;1.65;;;16.20;99.30;;;;;;5070590;28;20032;-80
2022/06/20 20:59:00;;;;;;;4.07;1.63;;;16.20;99.30;;;;;;5079114;28;20493;-81
2022/06/20 21:01:39;;;;;;;4.80;1.85;;;16.20;99.30;;;;;;5077520;28;20061;-80
2022/06/20 21:04:10;;;;;;;3.70;1.80;;;16.20;99.60;;;;;;5064722;28;20051;-82
2022/06/20 21:06:42;;;;;;;4.50;2.13;;;16.20;99.40;;;;;;5064196;28;20037;-81
2022/06/20 21:09:22;;;;;;;6.28;1.85;;;16.10;99.30;;;;;;5067359;28;20040;-80
2022/06/20 21:11:48;;;;;;;6.97;1.58;;;16.10;99.50;;;;;;5062606;28;20044;-81
2022/06/20 21:14:19;;;;;;;4.80;1.98;;;16.10;99.60;;;;;;5060594;28;20041;-82
2022/06/20 21:16:50;;;;;;;2.10;1.52;;;16.10;99.70;;;;;;5050967;28;20133;-82
2022/06/20 21:19:21;;;;;;;8.07;1.95;;;16.10;99.70;;;;;;5053142;28;20033;-80
2022/06/20 21:21:49;;;;;;;4.53;1.80;;;16.00;99.70;;;;;;5052263;28;20021;-81
2022/06/20 21:24:18;;;;;;;4.82;2.08;;;16.00;99.70;;;;;;5052515;28;20035;-81
2022/06/20 21:26:49;;;;;;;6.93;2.47;;;16.00;99.70;;;;;;5045560;28;20033;-81
2022/06/20 21:29:15;;;;;;;6.03;2.25;;;15.90;99.80;;;;;;5051486;28;20034;-80
2022/06/20 21:31:55;;;;;;;6.45;3.25;;;15.90;99.80;;;;;;5049849;28;20055;-80
2022/06/20 21:34:39;;;;;;;5.72;2.13;;;15.90;99.90;;;;;;5052491;28;20036;-80
2022/06/20 21:37:18;;;;;;;5.47;2.55;;;15.80;99.90;;;;;;5053606;28;20025;-82
2022/06/20 21:39:54;;;;;;;5.15;2.30;;;15.80;99.90;;;;;;5050229;28;20029;-81
2022/06/20 21:42:20;;;;;;;3.45;2.38;;;15.80;99.90;;;;;;5053071;28;20016;-80
2022/06/20 21:44:48;;;;;;;7.53;2.08;;;15.80;99.90;;;;;;5059671;28;20045;-81
2022/06/20 21:47:17;;;;;;;5.00;1.88;;;15.80;99.90;;;;;;5071884;28;20473;-79
2022/06/20 21:49:43;;;;;;;3.60;2.25;;;15.80;99.90;;;;;;5070865;28;20056;-80
2022/06/20 21:52:19;;;;;;;3.22;2.33;;;15.80;99.90;;;;;;5069144;28;20133;-80
2022/06/20 21:54:49;;;;;;;6.25;2.50;;;15.80;99.90;;;;;;5054341;28;20032;-79
2022/06/20 21:57:34;;;;;;;5.45;2.00;;;15.80;99.90;;;;;;5036632;28;20029;-81
2022/06/20 22:00:02;;;;;;;4.65;2.22;;;15.80;99.90;;;;;;5031759;28;20030;-81
2022/06/20 22:05:19;;;;;;;5.20;2.60;;;15.70;99.90;;;;;;5033238;28;20083;-81
2022/06/20 22:07:51;;;;;;;5.07;2.55;;;15.70;99.90;;;;;;5047550;28;20035;-82
2022/06/20 22:10:35;;;;;;;4.18;1.98;;;15.70;99.90;;;;;;5050708;28;20025;-81
2022/06/20 22:13:04;;;;;;;5.57;2.15;;;15.60;99.90;;;;;;5051441;28;20115;-81
2022/06/20 22:15:35;;;;;;;5.18;2.50;;;15.60;99.90;;;;;;5050304;28;20060;-82
2022/06/20 22:18:29;;;;;;;3.07;2.13;;;15.60;99.90;;;;;;5033548;28;20120;-80
2022/06/20 22:21:18;;;;;;;8.77;2.25;;;15.60;99.90;;;;;;5046813;28;20098;-81
2022/06/20 22:24:18;;;;;;;6.47;2.25;;;15.50;99.90;;;;;;5044716;28;20060;-82
2022/06/20 22:26:45;;;;;;;8.18;2.20;;;15.50;99.90;;;;;;5043864;28;20051;-80
2022/06/20 22:29:44;;;;;;;4.28;2.30;;;15.50;99.90;;;;;;5049286;28;20801;-80
2022/06/20 22:32:17;;;;;;;6.75;2.63;;;15.50;99.90;;;;;;5041515;28;20033;-79
2022/06/20 22:34:43;;;;;;;6.43;2.80;;;15.40;99.90;;;;;;5049197;28;20086;-83
2022/06/20 22:37:12;;;;;;;3.75;2.28;;;15.40;99.90;;;;;;5050287;28;20029;-81
2022/06/20 22:39:47;;;;;;;5.15;2.28;;;15.30;99.90;;;;;;5048293;28;20107;-82
2022/06/20 22:42:17;;;;;;;4.95;2.25;;;15.30;99.90;;;;;;5044776;28;20039;-81
2022/06/20 22:44:43;;;;;;;3.63;2.85;;;15.30;99.90;;;;;;5039828;28;20091;-82
2022/06/20 22:47:15;;;;;;;3.47;1.83;;;15.30;99.90;;;;;;5046542;28;20025;-83
2022/06/20 22:49:43;;;;;;;2.38;2.15;;;15.20;99.90;;;;;;5049737;28;20029;-81
2022/06/20 22:52:13;;;;;;;4.40;2.00;;;15.20;99.60;;;;;;5045419;28;20028;-81
2022/06/20 22:55:03;;;;;;;10.38;3.75;;;15.10;99.40;;;;;;5046467;28;20120;-80
2022/06/20 22:57:54;;;;;;;7.53;1.88;;;15.10;99.30;;;;;;5046562;28;20035;-82
2022/06/20 23:00:32;;;;;;;5.53;2.63;;;15.00;99.00;;;;;;5045903;28;20029;-81
2022/06/20 23:03:15;;;;;;;3.83;1.52;;;14.90;98.60;;;;;;5047881;28;20055;-84
2022/06/20 23:05:57;;;;;;;2.25;1.33;;;14.90;98.20;;;;;;5037471;28;20043;-82
2022/06/20 23:08:22;;;;;;;2.78;1.70;;;14.90;98.10;;;;;;5040922;28;20025;-81
2022/06/20 23:10:48;;;;;;;3.20;1.40;;;14.90;98.10;;;;;;5048838;28;20040;-83
2022/06/20 23:13:21;;;;;;;3.13;1.60;;;14.90;97.90;;;;;;5051384;28;20123;-81
2022/06/20 23:15:46;;;;;;;4.55;1.45;;;14.90;97.40;;;;;;5052384;28;20029;-81
2022/06/20 23:21:04;;;;;;;3.33;1.60;;;14.90;97.30;;;;;;5049441;28;20040;-82
2022/06/20 23:23:30;;;;;;;5.30;1.10;;;14.90;96.00;;;;;;5044766;28;20032;-82
2022/06/20 23:25:55;;;;;;;2.75;1.42;;;14.80;96.30;;;;;;5051539;28;20033;-81
2022/06/20 23:28:21;;;;;;;3.38;1.13;;;14.80;96.60;;;;;;5050671;28;20025;-82
2022/06/20 23:30:47;;;;;;;3.63;1.35;;;14.80;96.60;;;;;;5054691;28;20124;-82
2022/06/20 23:33:12;;;;;;;5.13;1.95;;;14.90;96.70;;;;;;5046362;28;20112;-81
2022/06/20 23:35:40;;;;;;;3.53;2.00;;;15.00;96.70;;;;;;5037550;28;20029;-83
2022/06/20 23:38:29;;;;;;;4.78;1.65;;;14.90;96.80;;;;;;5040886;28;20079;-82
2022/06/20 23:40:59;;;;;;;3.65;1.40;;;14.90;96.90;;;;;;5044578;28;20021;-82
2022/06/20 23:43:28;;;;;;;3.70;1.60;;;14.90;97.10;;;;;;5040303;28;20034;-80
2022/06/20 23:45:56;;;;;;;3.20;1.70;;;14.90;97.10;;;;;;5028917;28;20048;-81
2022/06/20 23:48:25;;;;;;;2.90;1.60;;;14.80;97.00;;;;;;5047625;28;20036;-80
2022/06/20 23:50:52;;;;;;;3.40;1.60;;;14.80;97.10;;;;;;5043797;28;20045;-82
2022/06/20 23:53:17;;;;;;;2.85;1.40;;;14.80;96.90;;;;;;5033677;28;20036;-80
2022/06/20 23:55:47;;;;;;;1.40;1.30;;;14.70;96.80;;;;;;5029450;28;20037;-82
2022/06/20 23:58:17;;;;;;;2.03;1.35;;;14.70;96.90;;;;;;5047492;28;20049;-81
